KNQX/NQX METAR and TAF weather

Enter ICAO airport designator
Station Type Date Time Source
KNQX METAR 2019/05/23 20:00 UTC NOAA

KNQX 232000Z 10019G24KT 10SM FEW028TCU SCT047 32/21 A3005 RMK RAE00 TCU OHD P0000 T03170211


Station Type Date Time Source
KNQX Decoded METAR 2019/05/23 20:00 UTC NOAA

KEY WEST NAVAL AIR STATION, FL, United States (KNQX) 24-35N 81-41W 6M
May 23, 2019 - 04:00 PM EDT / 2019.05.23 2000 UTC
Wind: from the E (100 degrees) at 22 MPH (19 KT) gusting to 28 MPH (24 KT):0
Visibility: 10 mile(s):0
Sky conditions: partly cloudy
Weather: Towering cumulus clouds observed
Precipitation last hour: A trace
Temperature: 89.1 F (31.7 C)
Heat index: 94.3 F (34.6 C):1
Dew Point: 70.0 F (21.1 C)
Relative Humidity: 53%
Pressure (altimeter): 30.05 in. Hg (1017 hPa)
ob: KNQX 232000Z 10019G24KT 10SM FEW028TCU SCT047 32/21 A3005 RMK RAE00 TCU OHD P0000 T03170211
cycle: 20

Station Type Date Time Source
KNQX TAF 2019/05/25 07:18 UTC NOAA

TAF KNQX 2507/2607 09015G22KT 9999 SCT025 BKN040 QNH2995INS
BECMG 2523/2601 09018G25KT 520005 QNH2996INS AUTOMATED SENSOR METWATCH 2507 TIL 2510 T26/2510Z T30/2520Z FN00205

Example: see airport list